Time;durP1;ratioP1;P1;durP2;ratioP2;P2;SDS_P1;SDS_P2;PMS_P1;PMS_P2;Temp;Humidity;BMP_temperature;BMP_pressure;BME280_temperature;BME280_humidity;BME280_pressure;Samples;Min_cycle;Max_cycle;Signal;HPM_P1;HPM_P2
2021/03/21 00:01:07;;;;;;;3.6;1.8;;;;;;;;;;;;;
2021/03/21 00:03:34;;;;;;;2.1;1.4;;;;;;;;;;;;;
2021/03/21 00:05:59;;;;;;;4;1.6;;;;;;;;;;;;;
2021/03/21 00:08:24;;;;;;;4.7;2.5;;;;;;;;;;;;;
2021/03/21 00:10:53;;;;;;;2.7;1.8;;;;;;;;;;;;;
2021/03/21 00:13:22;;;;;;;2.5;1.5;;;;;;;;;;;;;
2021/03/21 00:15:48;;;;;;;1.8;1.5;;;;;;;;;;;;;
2021/03/21 00:18:17;;;;;;;2;1.5;;;;;;;;;;;;;
2021/03/21 00:20:42;;;;;;;1.4;1.3;;;;;;;;;;;;;
2021/03/21 00:23:10;;;;;;;1.7;1.4;;;;;;;;;;;;;
2021/03/21 00:25:35;;;;;;;1.8;1.2;;;;;;;;;;;;;
2021/03/21 00:28:00;;;;;;;1;1;;;;;;;;;;;;;
2021/03/21 00:30:25;;;;;;;2.2;1.3;;;;;;;;;;;;;
2021/03/21 00:32:53;;;;;;;5.6;1.6;;;;;;;;;;;;;
2021/03/21 00:35:18;;;;;;;1.5;1.4;;;;;;;;;;;;;
2021/03/21 00:37:43;;;;;;;1.5;1.1;;;;;;;;;;;;;
2021/03/21 00:40:09;;;;;;;6.3;2.4;;;;;;;;;;;;;
2021/03/21 00:42:34;;;;;;;2.5;1.7;;;;;;;;;;;;;
2021/03/21 00:44:59;;;;;;;3.6;2.3;;;;;;;;;;;;;
2021/03/21 00:47:27;;;;;;;2.4;1.8;;;;;;;;;;;;;
2021/03/21 00:49:52;;;;;;;2.2;1.9;;;;;;;;;;;;;
2021/03/21 00:52:17;;;;;;;1.7;1.5;;;;;;;;;;;;;
2021/03/21 00:54:42;;;;;;;2.3;1.6;;;;;;;;;;;;;
2021/03/21 00:57:08;;;;;;;1.8;1.5;;;;;;;;;;;;;
2021/03/21 00:59:33;;;;;;;7.1;2.3;;;;;;;;;;;;;
2021/03/21 01:01:58;;;;;;;1.8;1.4;;;;;;;;;;;;;
2021/03/21 01:04:23;;;;;;;1.3;1.2;;;;;;;;;;;;;
2021/03/21 01:06:48;;;;;;;1.4;1.3;;;;;;;;;;;;;
2021/03/21 01:09:14;;;;;;;1.7;1.3;;;;;;;;;;;;;
2021/03/21 01:11:39;;;;;;;2.2;1.2;;;;;;;;;;;;;
2021/03/21 01:14:04;;;;;;;4.9;1.2;;;;;;;;;;;;;
2021/03/21 01:16:29;;;;;;;2;1.2;;;;;;;;;;;;;
2021/03/21 01:18:56;;;;;;;3.1;1.3;;;;;;;;;;;;;
2021/03/21 01:21:23;;;;;;;2.7;1.1;;;;;;;;;;;;;
2021/03/21 01:23:48;;;;;;;4.3;3.4;;;;;;;;;;;;;
2021/03/21 01:26:13;;;;;;;9.9;6.6;;;;;;;;;;;;;
2021/03/21 01:28:38;;;;;;;5.6;3.6;;;;;;;;;;;;;
2021/03/21 01:31:05;;;;;;;1.7;1.4;;;;;;;;;;;;;
2021/03/21 01:33:31;;;;;;;3.2;1.4;;;;;;;;;;;;;
2021/03/21 01:35:57;;;;;;;1.4;1.2;;;;;;;;;;;;;
2021/03/21 01:38:22;;;;;;;2.8;1.6;;;;;;;;;;;;;
2021/03/21 01:40:47;;;;;;;2.4;1.3;;;;;;;;;;;;;
2021/03/21 01:43:12;;;;;;;0.9;0.9;;;;;;;;;;;;;
2021/03/21 01:45:37;;;;;;;1.9;1.2;;;;;;;;;;;;;
2021/03/21 01:48:03;;;;;;;1.1;0.9;;;;;;;;;;;;;
2021/03/21 01:50:28;;;;;;;1.2;1.1;;;;;;;;;;;;;
2021/03/21 01:52:54;;;;;;;1.8;1.1;;;;;;;;;;;;;
2021/03/21 01:55:20;;;;;;;1.1;1;;;;;;;;;;;;;
2021/03/21 01:57:46;;;;;;;2.6;1.7;;;;;;;;;;;;;
2021/03/21 02:00:11;;;;;;;0.9;0.9;;;;;;;;;;;;;
2021/03/21 02:02:36;;;;;;;1.3;1.1;;;;;;;;;;;;;
2021/03/21 02:05:01;;;;;;;1.8;1.3;;;;;;;;;;;;;
2021/03/21 02:07:26;;;;;;;1.4;1.3;;;;;;;;;;;;;
2021/03/21 02:09:51;;;;;;;3.3;1.4;;;;;;;;;;;;;
2021/03/21 02:12:16;;;;;;;1.4;1.3;;;;;;;;;;;;;
2021/03/21 02:14:42;;;;;;;14.5;2.1;;;;;;;;;;;;;
2021/03/21 02:17:09;;;;;;;1;1;;;;;;;;;;;;;
2021/03/21 02:19:34;;;;;;;2.2;1.7;;;;;;;;;;;;;
2021/03/21 02:21:59;;;;;;;1.5;0.9;;;;;;;;;;;;;
2021/03/21 02:24:28;;;;;;;2.7;1.6;;;;;;;;;;;;;
2021/03/21 02:26:53;;;;;;;1.4;1.2;;;;;;;;;;;;;
2021/03/21 02:29:18;;;;;;;3.5;2.1;;;;;;;;;;;;;
2021/03/21 02:31:43;;;;;;;2.3;1;;;;;;;;;;;;;
2021/03/21 02:34:08;;;;;;;1.7;1.2;;;;;;;;;;;;;
2021/03/21 02:36:34;;;;;;;4.6;1.7;;;;;;;;;;;;;
2021/03/21 02:38:59;;;;;;;1.1;1;;;;;;;;;;;;;
2021/03/21 02:41:24;;;;;;;1.9;1.3;;;;;;;;;;;;;
2021/03/21 02:43:52;;;;;;;1.7;1.5;;;;;;;;;;;;;
2021/03/21 02:46:17;;;;;;;4.9;1.1;;;;;;;;;;;;;
2021/03/21 02:48:42;;;;;;;1.1;1;;;;;;;;;;;;;
2021/03/21 02:51:07;;;;;;;1.1;1;;;;;;;;;;;;;
2021/03/21 02:53:34;;;;;;;1.6;1.1;;;;;;;;;;;;;
2021/03/21 02:55:59;;;;;;;2.6;1.5;;;;;;;;;;;;;
2021/03/21 02:58:24;;;;;;;2.5;1.6;;;;;;;;;;;;;
2021/03/21 03:00:50;;;;;;;1.5;1.4;;;;;;;;;;;;;
2021/03/21 03:03:15;;;;;;;2.7;1.3;;;;;;;;;;;;;
2021/03/21 03:05:40;;;;;;;3.3;1.3;;;;;;;;;;;;;
2021/03/21 03:08:06;;;;;;;1.6;1.1;;;;;;;;;;;;;
2021/03/21 03:10:34;;;;;;;1.7;1.5;;;;;;;;;;;;;
2021/03/21 03:12:59;;;;;;;4.1;2.3;;;;;;;;;;;;;
2021/03/21 03:15:29;;;;;;;1.7;1.2;;;;;;;;;;;;;
2021/03/21 03:17:54;;;;;;;1.3;1.2;;;;;;;;;;;;;
2021/03/21 03:20:19;;;;;;;0.8;0.8;;;;;;;;;;;;;
2021/03/21 03:22:44;;;;;;;5.8;2.4;;;;;;;;;;;;;
2021/03/21 03:25:10;;;;;;;2.6;1.3;;;;;;;;;;;;;
2021/03/21 03:27:35;;;;;;;1.7;1.6;;;;;;;;;;;;;
2021/03/21 03:30:02;;;;;;;1.9;1.3;;;;;;;;;;;;;
2021/03/21 03:32:27;;;;;;;1.8;1.2;;;;;;;;;;;;;
2021/03/21 03:34:53;;;;;;;3.8;1.7;;;;;;;;;;;;;
2021/03/21 03:37:18;;;;;;;2.3;1.5;;;;;;;;;;;;;
2021/03/21 03:39:44;;;;;;;1.3;1.2;;;;;;;;;;;;;
2021/03/21 03:42:09;;;;;;;2.6;1.4;;;;;;;;;;;;;
2021/03/21 03:44:34;;;;;;;1.4;1.1;;;;;;;;;;;;;
2021/03/21 03:46:59;;;;;;;2.8;1.9;;;;;;;;;;;;;
2021/03/21 03:49:24;;;;;;;1.2;1.1;;;;;;;;;;;;;
2021/03/21 03:51:49;;;;;;;2.6;1.7;;;;;;;;;;;;;
2021/03/21 03:54:15;;;;;;;1.3;1.1;;;;;;;;;;;;;
2021/03/21 03:56:40;;;;;;;1.2;1;;;;;;;;;;;;;
2021/03/21 03:59:05;;;;;;;1.4;1.1;;;;;;;;;;;;;
2021/03/21 04:02:31;;;;;;;3.1;2.3;;;;;;;-3.03;75.31445;941.5892;;;;
2021/03/21 04:04:56;;;;;;;2.9;1.5;;;;;;;-3.01;75.40625;941.59;;;;
2021/03/21 04:07:22;;;;;;;2.1;1.2;;;;;;;-3.03;75.53613;941.5637;;;;
2021/03/21 04:09:47;;;;;;;2.8;1.5;;;;;;;-3.05;74.79199;941.5375;;;;
2021/03/21 04:12:12;;;;;;;1.9;1.2;;;;;;;-3.08;74.6084;941.5066;;;;
2021/03/21 04:14:38;;;;;;;2.8;1.6;;;;;;;-3.07;74.18066;941.395;;;;
2021/03/21 04:17:12;;;;;;;1.3;1.1;;;;;;;-3.11;73.04297;941.4272;;;;
2021/03/21 04:19:37;;;;;;;1.5;1;;;;;;;-3.2;72.98438;941.3158;;;;
2021/03/21 04:22:02;;;;;;;4.9;1.4;;;;;;;-3.07;73.18555;941.3053;;;;
2021/03/21 04:24:27;;;;;;;1.5;1.3;;;;;;;-3.03;73.64453;941.2724;;;;
2021/03/21 04:26:52;;;;;;;3.1;1.3;;;;;;;-2.85;73.85352;941.243;;;;
2021/03/21 04:29:18;;;;;;;1.2;1;;;;;;;-2.75;74.75684;941.2469;;;;
2021/03/21 04:31:43;;;;;;;1.3;1.2;;;;;;;-2.95;75.62793;941.1116;;;;
2021/03/21 04:34:08;;;;;;;11.5;1.9;;;;;;;-2.92;75.91113;941.1449;;;;
2021/03/21 04:36:36;;;;;;;2.2;1.5;;;;;;;-2.96;75.87891;941.101;;;;
2021/03/21 04:39:01;;;;;;;3.7;1.4;;;;;;;-3.01;76.05957;941.0883;;;;
2021/03/21 04:41:26;;;;;;;1.5;1.3;;;;;;;-3.04;76.11914;941.1998;;;;
2021/03/21 04:43:51;;;;;;;1.7;1.2;;;;;;;-3.05;75.78711;941.1789;;;;
2021/03/21 04:46:16;;;;;;;2.2;1.2;;;;;;;-2.97;75.49219;941.1174;;;;
2021/03/21 04:48:41;;;;;;;1.5;1.3;;;;;;;-2.97;74.9834;941.1355;;;;
2021/03/21 04:51:08;;;;;;;0.8;0.8;;;;;;;-2.98;74.81445;941.123;;;;
2021/03/21 04:53:33;;;;;;;1.1;1;;;;;;;-2.96;75.0498;941.1119;;;;
2021/03/21 04:55:59;;;;;;;2.1;1.4;;;;;;;-2.97;75.35742;941.0105;;;;
2021/03/21 04:58:24;;;;;;;1.1;1;;;;;;;-2.91;75.45801;941.0751;;;;
2021/03/21 05:00:49;;;;;;;2.3;1.3;;;;;;;-2.8;75.03613;941.1161;;;;
2021/03/21 05:03:17;;;;;;;1.9;1.2;;;;;;;-2.83;74.80957;941.0276;;;;
2021/03/21 05:05:43;;;;;;;2.1;1.2;;;;;;;-2.74;74.50391;941.1122;;;;
2021/03/21 05:08:08;;;;;;;1;1;;;;;;;-2.72;74.50684;941.0889;;;;
2021/03/21 05:10:35;;;;;;;1.3;1.2;;;;;;;-2.86;73.85059;941.0572;;;;
2021/03/21 05:13:00;;;;;;;4.1;1.6;;;;;;;-2.7;74.68848;941.132;;;;
2021/03/21 05:15:31;;;;;;;1.2;1.1;;;;;;;-2.63;74.7998;941.0778;;;;
2021/03/21 05:18:00;;;;;;;1.8;1.3;;;;;;;-2.76;74.77539;940.9704;;;;
2021/03/21 05:20:25;;;;;;;2.9;1.2;;;;;;;-3.01;75.00879;940.993;;;;
2021/03/21 05:22:50;;;;;;;1.7;1.3;;;;;;;-2.92;74.64844;941.009;;;;
2021/03/21 05:25:21;;;;;;;3.1;1.1;;;;;;;-2.85;73.86426;941.0846;;;;
2021/03/21 05:27:46;;;;;;;1.3;1.2;;;;;;;-2.7;74.01172;941.0513;;;;
2021/03/21 05:30:13;;;;;;;2.1;1.2;;;;;;;-2.7;74.91992;940.9836;;;;
2021/03/21 05:32:38;;;;;;;1.1;1;;;;;;;-2.6;74.76172;941.0519;;;;
2021/03/21 05:35:05;;;;;;;2;1.1;;;;;;;-2.62;74.80078;941.1367;;;;
2021/03/21 05:37:30;;;;;;;1.3;1.2;;;;;;;-2.57;75.03027;941.1586;;;;
2021/03/21 05:39:55;;;;;;;1.6;1.5;;;;;;;-2.55;75.00195;941.1689;;;;
2021/03/21 05:42:20;;;;;;;2.1;1;;;;;;;-2.38;74.9668;941.0605;;;;
2021/03/21 05:44:46;;;;;;;1.9;1.3;;;;;;;-2.39;73.96777;941.1509;;;;
2021/03/21 05:47:11;;;;;;;1.6;1.1;;;;;;;-2.4;74.28809;941.166;;;;
2021/03/21 05:49:36;;;;;;;1.4;1.3;;;;;;;-2.35;73.65332;941.1609;;;;
2021/03/21 05:52:01;;;;;;;0.9;0.9;;;;;;;-2.45;74.03418;941.2528;;;;
2021/03/21 05:54:31;;;;;;;4.4;1.1;;;;;;;-2.45;73.75781;941.2133;;;;
2021/03/21 05:56:59;;;;;;;1.3;0.9;;;;;;;-2.55;73.72754;941.1942;;;;
2021/03/21 05:59:58;;;;;;;1.7;1.3;;;;;;;-2.6;73.68652;941.1671;;;;
2021/03/21 06:02:23;;;;;;;1.1;0.9;;;;;;;-2.53;74.13086;941.052;;;;
2021/03/21 06:04:49;;;;;;;1.2;1;;;;;;;-2.37;74.03809;941.0836;;;;
2021/03/21 06:07:16;;;;;;;1.6;1.1;;;;;;;-2.28;73.32227;941.0701;;;;
2021/03/21 06:09:41;;;;;;;1.9;1.1;;;;;;;-2.11;73.05273;941.0382;;;;
2021/03/21 06:12:07;;;;;;;0.6;0.6;;;;;;;-2.02;72.28027;941.0513;;;;
2021/03/21 06:14:33;;;;;;;0.9;0.9;;;;;;;-2.01;71.76172;941.0572;;;;
2021/03/21 06:17:01;;;;;;;1.1;1;;;;;;;-1.79;71.85449;941.0412;;;;
2021/03/21 06:19:27;;;;;;;1.5;1.3;;;;;;;-1.64;72.1582;940.9962;;;;
2021/03/21 06:21:54;;;;;;;1.3;1.2;;;;;;;-1.57;71.66016;941.0291;;;;
2021/03/21 06:24:22;;;;;;;2.2;1.5;;;;;;;-1.56;70.42969;941.0165;;;;
2021/03/21 06:26:47;;;;;;;1.2;1.1;;;;;;;-1.55;70.91992;941.034;;;;
2021/03/21 06:29:13;;;;;;;2;1.5;;;;;;;-1.56;69.41992;941.0624;;;;
2021/03/21 06:31:38;;;;;;;1;0.9;;;;;;;-1.44;69.53906;941.0733;;;;
2021/03/21 06:34:03;;;;;;;1.7;1.4;;;;;;;-1.32;69.12598;941.0232;;;;
2021/03/21 06:36:31;;;;;;;1.7;1.5;;;;;;;-1.27;68.56836;941.1848;;;;
2021/03/21 06:38:56;;;;;;;1.8;1.2;;;;;;;-1.13;67.8916;941.2192;;;;
2021/03/21 06:41:23;;;;;;;1.5;1.2;;;;;;;-1.21;67.60059;941.094;;;;
2021/03/21 06:43:49;;;;;;;2.3;1.4;;;;;;;-1.29;67.97656;941.1643;;;;
2021/03/21 06:46:14;;;;;;;2.1;1.5;;;;;;;-1.26;68.0918;941.1042;;;;
2021/03/21 06:48:39;;;;;;;1;0.7;;;;;;;-1.28;68.17773;941.133;;;;
2021/03/21 06:51:11;;;;;;;3.5;1.7;;;;;;;-1.22;67.52148;941.1208;;;;
2021/03/21 06:53:36;;;;;;;2.3;1.2;;;;;;;-0.96;67.96387;941.2134;;;;
2021/03/21 06:56:01;;;;;;;3.1;0.9;;;;;;;-0.79;66.96875;941.2658;;;;
2021/03/21 06:58:26;;;;;;;1.4;1.1;;;;;;;-0.54;67.58398;941.1677;;;;
2021/03/21 07:00:51;;;;;;;1;0.9;;;;;;;-0.39;67.05273;941.1347;;;;
2021/03/21 07:03:17;;;;;;;1.1;0.9;;;;;;;-0.62;66.04883;941.0101;;;;
2021/03/21 07:06:32;;;;;;;2;1.5;;;;;;;-0.67;65.29492;940.932;;;;
2021/03/21 07:09:05;;;;;;;1.5;1.3;;;;;;;-0.86;65.96777;940.99;;;;
2021/03/21 07:11:32;;;;;;;1.3;1;;;;;;;-0.62;66.61523;940.902;;;;
2021/03/21 07:13:57;;;;;;;1.3;1.2;;;;;;;-0.74;65.95117;940.7827;;;;
2021/03/21 07:16:29;;;;;;;2.5;1.3;;;;;;;-0.66;65.77539;940.8035;;;;
2021/03/21 07:18:54;;;;;;;1.3;1.2;;;;;;;-0.66;63.95215;940.753;;;;
2021/03/21 07:21:19;;;;;;;0.8;0.8;;;;;;;-0.62;66.44922;940.8044;;;;
2021/03/21 07:23:45;;;;;;;2.3;1.2;;;;;;;-0.5;65.66699;940.7913;;;;
2021/03/21 07:26:10;;;;;;;2.9;1.3;;;;;;;-0.45;65.27441;940.6902;;;;
2021/03/21 07:28:36;;;;;;;3.4;1.2;;;;;;;-0.26;63.64551;940.6467;;;;
2021/03/21 07:31:02;;;;;;;0.7;0.7;;;;;;;-0.06;63.90918;940.5842;;;;
2021/03/21 07:33:28;;;;;;;2.5;1.5;;;;;;;0.05;63.22266;940.5272;;;;
2021/03/21 07:35:53;;;;;;;0.8;0.7;;;;;;;-0.34;63.83301;940.5197;;;;
2021/03/21 07:38:18;;;;;;;1.8;1.4;;;;;;;-0.28;63.48633;940.5823;;;;
2021/03/21 07:40:43;;;;;;;1.6;1.2;;;;;;;-0.22;62.6377;940.5751;;;;
2021/03/21 07:43:08;;;;;;;0.9;0.9;;;;;;;-0.06;62.4707;940.5213;;;;
2021/03/21 07:45:34;;;;;;;1.6;1.1;;;;;;;0.13;62.95898;940.5544;;;;
2021/03/21 07:48:00;;;;;;;1;1;;;;;;;0.26;61.45996;940.5275;;;;
2021/03/21 07:50:25;;;;;;;2.9;1.4;;;;;;;0.28;61.55176;940.5229;;;;
2021/03/21 07:52:50;;;;;;;2.6;1.3;;;;;;;0.27;62.15234;940.4773;;;;
2021/03/21 07:55:16;;;;;;;2.1;1.3;;;;;;;0.57;62.75391;940.483;;;;
2021/03/21 07:57:41;;;;;;;3;2.2;;;;;;;0.74;62.40137;940.5156;;;;
2021/03/21 08:00:07;;;;;;;2.2;1.4;;;;;;;0.74;60.1582;940.4623;;;;
2021/03/21 08:02:33;;;;;;;3.7;0.9;;;;;;;0.84;60.66309;940.4554;;;;
2021/03/21 08:04:58;;;;;;;2.7;1.3;;;;;;;0.83;59.51172;940.3399;;;;
2021/03/21 08:07:23;;;;;;;5.1;1;;;;;;;0.88;59.87695;940.3549;;;;
2021/03/21 08:09:48;;;;;;;2.5;1.8;;;;;;;0.91;59.50098;940.3642;;;;
2021/03/21 08:12:17;;;;;;;2.5;1.2;;;;;;;0.88;60.47949;940.3625;;;;
2021/03/21 08:14:43;;;;;;;1.2;1.1;;;;;;;1.11;59.66309;940.3795;;;;
2021/03/21 08:17:17;;;;;;;2.3;1.5;;;;;;;1.57;60.4209;940.2332;;;;
2021/03/21 08:19:46;;;;;;;1.7;1.4;;;;;;;1.85;58.24609;940.1968;;;;
2021/03/21 08:22:11;;;;;;;2.8;1.2;;;;;;;1.72;58.8877;940.2913;;;;
2021/03/21 08:24:36;;;;;;;2.1;1.4;;;;;;;2.1;57.29492;940.1962;;;;
2021/03/21 08:27:02;;;;;;;1.9;1.5;;;;;;;2.28;56.5918;940.2696;;;;
2021/03/21 08:29:27;;;;;;;1.8;1.2;;;;;;;1.94;54.57617;940.2117;;;;
2021/03/21 08:31:52;;;;;;;1.7;1.1;;;;;;;1.68;56.1416;940.25;;;;
2021/03/21 08:34:17;;;;;;;2.9;1.7;;;;;;;1.78;57.7998;940.2631;;;;
2021/03/21 08:36:42;;;;;;;1.3;1;;;;;;;1.83;53.33203;940.1259;;;;
2021/03/21 08:39:11;;;;;;;1.7;1.2;;;;;;;1.97;55.28613;940.1903;;;;
2021/03/21 08:41:36;;;;;;;0.6;0.6;;;;;;;2.02;56.25488;940.1942;;;;
2021/03/21 08:44:03;;;;;;;1.3;1.1;;;;;;;2.11;53.75879;940.1348;;;;
2021/03/21 08:46:28;;;;;;;3.5;1.6;;;;;;;2.16;55.69043;940.2216;;;;
2021/03/21 08:48:53;;;;;;;2.7;1.6;;;;;;;2.42;54.49316;940.2455;;;;
2021/03/21 08:51:20;;;;;;;1.3;1.1;;;;;;;2.28;53.69141;940.0712;;;;
2021/03/21 08:53:45;;;;;;;12.9;5.8;;;;;;;1.82;53.94629;940.0261;;;;
2021/03/21 08:56:10;;;;;;;7.7;4.1;;;;;;;2.03;56.16602;940.1177;;;;
2021/03/21 08:58:35;;;;;;;1.9;1.6;;;;;;;2.28;55.39355;940.1576;;;;
2021/03/21 09:01:03;;;;;;;2.4;1.8;;;;;;;2.36;54.15918;940.0987;;;;
2021/03/21 09:03:28;;;;;;;3.4;1.9;;;;;;;2.23;53.65137;940.069;;;;
2021/03/21 09:05:54;;;;;;;2.8;2.1;;;;;;;2.09;57.25;940.0892;;;;
2021/03/21 09:08:18;;;;;;;5.7;3.6;;;;;;;2.12;55.5625;939.9985;;;;
2021/03/21 09:10:47;;;;;;;10.6;3.3;;;;;;;2.24;55.9375;940.0159;;;;
2021/03/21 09:13:11;;;;;;;15;7.8;;;;;;;2.07;54.48145;939.9713;;;;
2021/03/21 09:15:47;;;;;;;9.3;5.2;;;;;;;2.22;55.7334;939.9601;;;;
2021/03/21 09:18:17;;;;;;;2.6;1.5;;;;;;;2.03;55.27051;939.9728;;;;
2021/03/21 09:20:42;;;;;;;7.6;4.3;;;;;;;2.09;55.72754;939.9315;;;;
2021/03/21 09:23:08;;;;;;;4.3;3;;;;;;;2.13;57.32129;939.9849;;;;
2021/03/21 09:25:33;;;;;;;7.2;4.6;;;;;;;2.18;56.71289;939.9515;;;;
2021/03/21 09:28:02;;;;;;;3;1.7;;;;;;;2.31;57.49121;939.971;;;;
2021/03/21 09:30:27;;;;;;;1.9;1.2;;;;;;;2.38;54.86816;940.0217;;;;
2021/03/21 09:32:52;;;;;;;5.4;2.5;;;;;;;2.49;54.24414;940.0613;;;;
2021/03/21 09:35:17;;;;;;;2.8;1.6;;;;;;;2.43;56.1416;940.0109;;;;
2021/03/21 09:37:43;;;;;;;1.7;1.1;;;;;;;2.62;55.19043;939.8948;;;;
2021/03/21 09:40:10;;;;;;;1.4;1.1;;;;;;;2.81;54.84473;939.9391;;;;
2021/03/21 09:42:37;;;;;;;3.4;1.5;;;;;;;2.89;55.24902;939.9213;;;;
2021/03/21 09:45:02;;;;;;;1.2;1.1;;;;;;;3.03;53.42676;939.8345;;;;
2021/03/21 09:47:28;;;;;;;5.6;1.4;;;;;;;2.94;51.40723;939.895;;;;
2021/03/21 09:49:54;;;;;;;1.8;1.1;;;;;;;2.81;51.02246;939.988;;;;
2021/03/21 09:52:18;;;;;;;6.2;4.6;;;;;;;2.88;52.29785;939.9531;;;;
2021/03/21 09:54:43;;;;;;;4.8;1.6;;;;;;;2.72;51.33691;939.7946;;;;
2021/03/21 09:57:09;;;;;;;2.9;1.4;;;;;;;2.93;52.01172;939.8599;;;;
2021/03/21 09:59:34;;;;;;;4.3;1.8;;;;;;;3.1;56.30762;939.7371;;;;
2021/03/21 10:02:02;;;;;;;1.2;0.9;;;;;;;3.01;50.27148;939.7408;;;;
2021/03/21 10:04:27;;;;;;;1.3;1;;;;;;;3.28;52.64941;939.7161;;;;
2021/03/21 10:06:52;;;;;;;1.7;1;;;;;;;3.28;51.40332;939.7278;;;;
2021/03/21 10:09:17;;;;;;;1.2;1.1;;;;;;;3.22;52.14844;939.6926;;;;
2021/03/21 10:11:43;;;;;;;1.9;1.4;;;;;;;3.19;52.80762;939.7587;;;;
2021/03/21 10:14:07;;;;;;;1.6;1;;;;;;;3.2;52.31445;939.7838;;;;
2021/03/21 10:16:38;;;;;;;1.6;1.2;;;;;;;3.22;53.11426;939.7297;;;;
2021/03/21 10:19:09;;;;;;;1.9;0.9;;;;;;;3.17;54.69043;939.7076;;;;
2021/03/21 10:21:38;;;;;;;1.4;0.8;;;;;;;3.2;55.52441;939.7293;;;;
2021/03/21 10:24:03;;;;;;;1.5;1.3;;;;;;;3.26;53.69238;939.6951;;;;
2021/03/21 10:26:28;;;;;;;4.5;2.5;;;;;;;3.4;53.63086;939.6531;;;;
2021/03/21 10:28:53;;;;;;;1.9;1.4;;;;;;;3.57;54.65039;939.6353;;;;
2021/03/21 10:31:19;;;;;;;1.9;1.2;;;;;;;3.86;54.84668;939.5815;;;;
2021/03/21 10:33:44;;;;;;;1;0.9;;;;;;;3.79;50.97168;939.5338;;;;
2021/03/21 10:36:08;;;;;;;12.2;6.3;;;;;;;3.79;52.17383;939.4998;;;;
2021/03/21 10:38:33;;;;;;;3;2.1;;;;;;;4.13;51.34961;939.5803;;;;
2021/03/21 10:40:58;;;;;;;1.5;1.1;;;;;;;4.2;49.94043;939.5442;;;;
2021/03/21 10:43:24;;;;;;;5.4;3.4;;;;;;;3.99;49.38672;939.4727;;;;
2021/03/21 10:45:49;;;;;;;2.2;1.7;;;;;;;3.97;52.62402;939.5792;;;;
2021/03/21 10:48:14;;;;;;;1.9;1.3;;;;;;;4.25;51.99316;939.5936;;;;
2021/03/21 10:50:39;;;;;;;3.7;1.2;;;;;;;4.16;52.52246;939.53;;;;
2021/03/21 10:53:04;;;;;;;3.6;1.6;;;;;;;4.34;51.61035;939.6036;;;;
2021/03/21 10:55:29;;;;;;;1.5;1.1;;;;;;;4.37;52.36816;939.5298;;;;
2021/03/21 10:57:54;;;;;;;4;1.4;;;;;;;4.26;49.64258;939.6025;;;;
2021/03/21 11:00:19;;;;;;;3.8;1.6;;;;;;;4.08;51.11914;939.5298;;;;
2021/03/21 11:02:47;;;;;;;1;0.9;;;;;;;3.89;52.4668;939.5273;;;;
2021/03/21 11:05:12;;;;;;;1.2;1;;;;;;;3.93;51.52637;939.4034;;;;
2021/03/21 11:07:37;;;;;;;1.9;1.3;;;;;;;4.22;53.46289;939.4403;;;;
2021/03/21 11:10:03;;;;;;;1.5;1.1;;;;;;;4.45;52.16406;939.4871;;;;
2021/03/21 11:12:32;;;;;;;1.6;0.8;;;;;;;4.17;52.64746;939.5236;;;;
2021/03/21 11:14:57;;;;;;;1.2;1;;;;;;;4.25;51.70117;939.5338;;;;
2021/03/21 11:17:26;;;;;;;1;0.9;;;;;;;3.69;53.91406;939.5144;;;;
2021/03/21 11:19:56;;;;;;;1.9;1.1;;;;;;;4.1;52.66113;939.4902;;;;
2021/03/21 11:22:20;;;;;;;1.5;1.2;;;;;;;3.99;52.97363;939.456;;;;
2021/03/21 11:24:44;;;;;;;0.5;0.5;;;;;;;3.98;54.88379;939.3825;;;;
2021/03/21 11:27:12;;;;;;;1.3;0.9;;;;;;;4.19;55.00195;939.3541;;;;
2021/03/21 11:29:39;;;;;;;1.8;1.3;;;;;;;4.07;53.90625;939.3442;;;;
2021/03/21 11:32:04;;;;;;;1.2;0.8;;;;;;;3.51;55.57715;939.1705;;;;
2021/03/21 11:34:31;;;;;;;1.4;1.2;;;;;;;3.46;56.42383;939.2764;;;;
2021/03/21 11:36:56;;;;;;;1.8;1.2;;;;;;;3.43;56.47656;939.2179;;;;
2021/03/21 11:39:21;;;;;;;1;0.8;;;;;;;3.44;57.72266;939.1936;;;;
2021/03/21 11:41:46;;;;;;;1;0.7;;;;;;;3.86;56.52148;939.197;;;;
2021/03/21 11:44:12;;;;;;;3.4;0.9;;;;;;;3.95;56.08398;939.1183;;;;
2021/03/21 11:46:37;;;;;;;0.8;0.8;;;;;;;3.94;57.25098;939.2172;;;;
2021/03/21 11:49:05;;;;;;;4.3;1;;;;;;;4.36;55.47461;939.1946;;;;
2021/03/21 11:51:30;;;;;;;0.6;0.6;;;;;;;4.61;55.08984;939.1711;;;;
2021/03/21 11:53:55;;;;;;;0.8;0.7;;;;;;;4.86;54.21973;939.1298;;;;
2021/03/21 11:56:20;;;;;;;0.6;0.6;;;;;;;4.73;54.84668;939.0333;;;;
2021/03/21 11:58:46;;;;;;;1;0.6;;;;;;;4.64;54.94629;938.9852;;;;
2021/03/21 12:01:11;;;;;;;1.2;0.9;;;;;;;4.62;54.16699;938.949;;;;
2021/03/21 12:03:37;;;;;;;1.1;0.7;;;;;;;4.86;54.26465;938.9562;;;;
2021/03/21 12:06:03;;;;;;;1.3;0.7;;;;;;;5.02;53.23828;938.9112;;;;
2021/03/21 12:08:28;;;;;;;0.6;0.6;;;;;;;5.32;52.30371;938.8819;;;;
2021/03/21 12:10:53;;;;;;;1.5;1.1;;;;;;;5.73;52.60449;938.8747;;;;
2021/03/21 12:13:19;;;;;;;0.9;0.8;;;;;;;5.95;51.75;938.8206;;;;
2021/03/21 12:15:51;;;;;;;3.9;1.1;;;;;;;5.95;51.91797;938.7755;;;;
2021/03/21 12:18:23;;;;;;;2;0.9;;;;;;;6.03;52.10938;938.6948;;;;
2021/03/21 12:20:48;;;;;;;1.1;0.8;;;;;;;6.24;51.10645;938.7475;;;;
2021/03/21 12:23:13;;;;;;;1.2;0.8;;;;;;;6.37;51.29199;938.7985;;;;
2021/03/21 12:25:42;;;;;;;1.3;0.9;;;;;;;6.35;51.57227;938.7764;;;;
2021/03/21 12:28:14;;;;;;;1;0.6;;;;;;;6.15;52.2373;938.733;;;;
2021/03/21 12:30:46;;;;;;;1.6;1;;;;;;;5.9;52.61328;938.6802;;;;
2021/03/21 12:33:11;;;;;;;1.2;1;;;;;;;5.55;53.82227;938.6284;;;;
2021/03/21 12:35:41;;;;;;;1.4;0.9;;;;;;;5.81;53.64063;938.6244;;;;
2021/03/21 12:38:06;;;;;;;1.2;1.1;;;;;;;6.07;52.38574;938.552;;;;
2021/03/21 12:40:40;;;;;;;2.1;1;;;;;;;6.09;52.99805;938.4785;;;;
2021/03/21 12:43:04;;;;;;;1.7;1.2;;;;;;;6.23;52.61914;938.5969;;;;
2021/03/21 12:45:30;;;;;;;3.1;1.5;;;;;;;6.07;53.1084;938.5111;;;;
2021/03/21 12:47:55;;;;;;;1.2;1.1;;;;;;;5.95;53.37598;938.468;;;;
2021/03/21 12:50:23;;;;;;;1.8;0.9;;;;;;;5.43;55.36328;938.5047;;;;
2021/03/21 12:52:48;;;;;;;0.7;0.6;;;;;;;5.47;55.19043;938.469;;;;
2021/03/21 12:55:13;;;;;;;0.9;0.8;;;;;;;5.55;55.37891;938.4205;;;;
2021/03/21 12:57:39;;;;;;;1;0.6;;;;;;;5.58;55.23828;938.4966;;;;
2021/03/21 13:00:04;;;;;;;0.9;0.9;;;;;;;5.44;55.55762;938.435;;;;
2021/03/21 13:02:32;;;;;;;1.3;0.9;;;;;;;5.15;57.61621;938.5006;;;;
2021/03/21 13:04:56;;;;;;;0.9;0.8;;;;;;;5.04;57.46777;938.4597;;;;
2021/03/21 13:07:22;;;;;;;0.7;0.6;;;;;;;4.86;58.60254;938.4088;;;;
2021/03/21 13:09:48;;;;;;;0.6;0.6;;;;;;;4.96;57.70313;938.3763;;;;
2021/03/21 13:12:13;;;;;;;0.9;0.7;;;;;;;4.92;59.14258;938.3933;;;;
2021/03/21 13:14:43;;;;;;;0.7;0.7;;;;;;;4.68;59.02832;938.3185;;;;
2021/03/21 13:17:17;;;;;;;0.6;0.5;;;;;;;4.35;60.9082;938.3137;;;;
2021/03/21 13:19:42;;;;;;;2;1;;;;;;;4.33;61.73828;938.3115;;;;
2021/03/21 13:22:12;;;;;;;1.6;1.2;;;;;;;4.22;61.76563;938.3071;;;;
2021/03/21 13:24:43;;;;;;;1.8;1;;;;;;;4.42;61.71777;938.3201;;;;
2021/03/21 13:27:07;;;;;;;0.8;0.8;;;;;;;4.46;61.20508;938.2796;;;;
2021/03/21 13:29:34;;;;;;;3;1.2;;;;;;;4.34;62.07715;938.2441;;;;
2021/03/21 13:31:59;;;;;;;1;0.9;;;;;;;4.34;62.72949;938.1926;;;;
2021/03/21 13:34:28;;;;;;;1.6;1;;;;;;;4.27;62.82031;938.1149;;;;
2021/03/21 13:36:52;;;;;;;1.7;1.2;;;;;;;4.25;63.57129;938.2207;;;;
2021/03/21 13:39:19;;;;;;;2.5;1.2;;;;;;;4.11;63.28125;938.29;;;;
2021/03/21 13:41:44;;;;;;;1.3;1.2;;;;;;;3.95;64.05566;938.2715;;;;
2021/03/21 13:44:12;;;;;;;3.1;1.3;;;;;;;4.01;64.48145;938.2565;;;;
2021/03/21 13:46:39;;;;;;;1.5;1.1;;;;;;;3.92;63.79199;938.1847;;;;
2021/03/21 13:49:04;;;;;;;3.4;1.2;;;;;;;3.68;64.45313;938.1462;;;;
2021/03/21 13:51:29;;;;;;;1.9;1.2;;;;;;;3.8;65.02246;938.1883;;;;
2021/03/21 13:53:54;;;;;;;2.5;1.5;;;;;;;3.73;65.55176;938.262;;;;
2021/03/21 13:56:19;;;;;;;1.1;0.8;;;;;;;3.75;65.71191;938.2407;;;;
2021/03/21 13:58:47;;;;;;;3;1.3;;;;;;;3.89;65.25977;938.2466;;;;
2021/03/21 14:01:12;;;;;;;1.4;1.2;;;;;;;3.56;66.32227;938.1741;;;;
2021/03/21 14:03:40;;;;;;;1;0.9;;;;;;;3.46;67.41895;938.2012;;;;
2021/03/21 14:06:05;;;;;;;1.8;1.3;;;;;;;3.25;68.57422;938.2065;;;;
2021/03/21 14:08:30;;;;;;;2.4;1.1;;;;;;;3.49;67.1875;938.1803;;;;
2021/03/21 14:10:55;;;;;;;1.2;1.1;;;;;;;3.39;67.93555;938.1724;;;;
2021/03/21 14:13:24;;;;;;;2.8;1.6;;;;;;;3.54;67.79004;938.1756;;;;
2021/03/21 14:15:52;;;;;;;1.8;1.3;;;;;;;3.42;68.47852;938.2405;;;;
2021/03/21 14:18:18;;;;;;;3;1.1;;;;;;;3.48;67.75879;938.1367;;;;
2021/03/21 14:20:44;;;;;;;2;1.2;;;;;;;3.55;67.48926;938.1658;;;;
2021/03/21 14:23:09;;;;;;;2.2;1.6;;;;;;;3.31;69.06738;938.1735;;;;
2021/03/21 14:25:37;;;;;;;1.5;1.3;;;;;;;3.54;68.49902;938.0105;;;;
2021/03/21 14:28:02;;;;;;;1.6;1.2;;;;;;;3.64;67.97559;938.0725;;;;
2021/03/21 14:30:27;;;;;;;1.1;1;;;;;;;3.48;68.37598;938.0578;;;;
2021/03/21 14:32:53;;;;;;;2.9;1.2;;;;;;;3.64;68.16504;938.0148;;;;
2021/03/21 14:35:18;;;;;;;1.1;0.8;;;;;;;3.63;68.53418;937.9634;;;;
2021/03/21 14:37:43;;;;;;;2.7;1.3;;;;;;;3.71;68.42383;937.8898;;;;
2021/03/21 14:40:08;;;;;;;1.3;0.9;;;;;;;4.01;67.57324;937.8232;;;;
2021/03/21 14:42:33;;;;;;;1.9;0.9;;;;;;;4.13;66.88379;937.9288;;;;
2021/03/21 14:44:58;;;;;;;1.1;0.9;;;;;;;4.16;66.49414;937.8878;;;;
2021/03/21 14:47:24;;;;;;;2.8;1.4;;;;;;;3.9;67.6123;937.8234;;;;
2021/03/21 14:49:49;;;;;;;1.2;0.8;;;;;;;3.8;68.43945;937.8318;;;;
2021/03/21 14:52:16;;;;;;;0.8;0.8;;;;;;;3.66;69.24805;937.8976;;;;
2021/03/21 14:54:40;;;;;;;1.1;0.8;;;;;;;3.75;69.29688;937.8942;;;;
2021/03/21 14:57:06;;;;;;;0.9;0.9;;;;;;;3.78;69.39063;937.8309;;;;
2021/03/21 14:59:32;;;;;;;2.6;0.9;;;;;;;3.81;69.10352;937.8345;;;;
2021/03/21 15:01:58;;;;;;;4.1;1.1;;;;;;;3.77;69.89355;937.8137;;;;
2021/03/21 15:04:23;;;;;;;1.2;1;;;;;;;3.86;69.5957;937.7548;;;;
2021/03/21 15:06:49;;;;;;;1.3;1;;;;;;;3.86;69.52734;937.7078;;;;
2021/03/21 15:09:14;;;;;;;1.9;1.2;;;;;;;3.71;70.03125;937.8049;;;;
2021/03/21 15:11:40;;;;;;;1.6;1.2;;;;;;;3.48;71.21777;937.8176;;;;
2021/03/21 15:14:05;;;;;;;2.4;1.6;;;;;;;3.51;71.10059;937.8419;;;;
2021/03/21 15:16:30;;;;;;;3;1.8;;;;;;;3.56;71.50098;937.8088;;;;
2021/03/21 15:18:55;;;;;;;2.6;1.6;;;;;;;3.57;71.05176;937.7916;;;;
2021/03/21 15:21:21;;;;;;;1.2;1;;;;;;;3.49;71.71484;937.7341;;;;
2021/03/21 15:23:48;;;;;;;3.1;1.2;;;;;;;3.3;72.66992;937.7095;;;;
2021/03/21 15:26:14;;;;;;;2.1;1.3;;;;;;;3.38;72.85156;937.688;;;;
2021/03/21 15:28:40;;;;;;;2.6;1.6;;;;;;;3.2;73.53906;937.6373;;;;
2021/03/21 15:31:05;;;;;;;2.4;1.6;;;;;;;3.15;73.69824;937.637;;;;
2021/03/21 15:33:32;;;;;;;2.8;2.3;;;;;;;3;74.47949;937.6431;;;;
2021/03/21 15:35:56;;;;;;;4.3;2.5;;;;;;;2.98;75.19629;937.6625;;;;
2021/03/21 15:38:24;;;;;;;4.9;2.4;;;;;;;3.09;75.18164;937.6312;;;;
2021/03/21 15:40:50;;;;;;;4.1;2.1;;;;;;;3.15;74.87793;937.6537;;;;